createdAt,value
2018-04-19T00:05:43.759Z,99.90
2018-04-19T00:10:27.074Z,99.90
2018-04-19T00:15:10.394Z,99.90
2018-04-19T00:19:53.709Z,99.90
2018-04-19T00:24:37.783Z,99.90
2018-04-19T00:29:21.159Z,99.90
2018-04-19T00:34:04.447Z,99.90
2018-04-19T00:38:47.783Z,99.90
2018-04-19T00:43:31.103Z,99.90
2018-04-19T00:48:14.451Z,99.90
2018-04-19T00:53:09.573Z,99.90
2018-04-19T00:57:53.651Z,99.90
2018-04-19T01:02:36.975Z,99.90
2018-04-19T01:07:21.075Z,99.90
2018-04-19T01:12:04.388Z,99.90
2018-04-19T01:16:47.798Z,99.90
2018-04-19T01:21:31.177Z,99.90
2018-04-19T01:26:14.532Z,99.90
2018-04-19T01:30:57.855Z,99.90
2018-04-19T01:35:53.004Z,99.90
2018-04-19T01:40:36.355Z,99.90
2018-04-19T01:45:19.685Z,99.90
2018-04-19T01:50:02.966Z,99.90
2018-04-19T01:54:46.283Z,99.90
2018-04-19T01:59:30.381Z,99.90
2018-04-19T02:04:14.460Z,99.90
2018-04-19T02:08:57.784Z,99.90
2018-04-19T02:13:41.107Z,99.90
2018-04-19T02:18:25.167Z,99.90
2018-04-19T02:23:09.254Z,99.90
2018-04-19T02:27:52.579Z,99.90
2018-04-19T02:32:35.972Z,99.90
2018-04-19T02:37:19.284Z,99.90
2018-04-19T02:42:02.603Z,99.90
2018-04-19T02:46:45.960Z,99.90
2018-04-19T02:51:29.254Z,99.90
2018-04-19T02:56:13.361Z,99.90
2018-04-19T03:00:56.655Z,99.90
2018-04-19T03:05:39.978Z,99.90
2018-04-19T03:10:23.308Z,99.90
2018-04-19T03:15:06.639Z,99.90
2018-04-19T03:19:49.946Z,99.90
2018-04-19T03:24:33.259Z,99.90
2018-04-19T03:29:17.334Z,99.90
2018-04-19T03:34:00.711Z,99.90
2018-04-19T03:38:44.039Z,99.90
2018-04-19T03:43:27.445Z,99.90
2018-04-19T03:48:11.534Z,99.90
2018-04-19T03:52:54.873Z,99.90
2018-04-19T03:57:38.193Z,99.90
2018-04-19T04:02:21.548Z,99.90
2018-04-19T04:07:04.886Z,99.90
2018-04-19T04:11:48.976Z,99.90
2018-04-19T04:16:44.149Z,99.90
2018-04-19T04:21:27.479Z,99.90
2018-04-19T04:26:10.834Z,99.90
2018-04-19T04:30:54.162Z,99.90
2018-04-19T04:35:37.519Z,99.90
2018-04-19T04:40:20.817Z,99.90
2018-04-19T04:45:04.131Z,99.90
2018-04-19T04:49:47.455Z,99.90
2018-04-19T04:54:30.800Z,99.90
2018-04-19T04:59:14.104Z,99.90
2018-04-19T05:03:57.414Z,99.90
2018-04-19T05:08:40.958Z,99.90
2018-04-19T05:13:24.272Z,99.90
2018-04-19T05:18:07.588Z,99.90
2018-04-19T05:22:50.915Z,99.90
2018-04-19T05:27:34.300Z,99.90
2018-04-19T05:32:17.666Z,99.90
2018-04-19T05:37:01.754Z,99.90
2018-04-19T05:41:45.762Z,99.90
2018-04-19T05:46:29.178Z,99.90
2018-04-19T05:51:12.480Z,99.90
2018-04-19T05:55:55.798Z,99.90
2018-04-19T06:00:39.131Z,99.90
2018-04-19T06:05:23.257Z,99.90
2018-04-19T06:10:06.671Z,99.90
2018-04-19T06:14:49.995Z,99.90
2018-04-19T06:19:33.402Z,99.90
2018-04-19T06:24:16.726Z,99.90
2018-04-19T06:29:00.123Z,99.90
2018-04-19T06:33:43.460Z,99.90
2018-04-19T06:38:26.933Z,99.90
2018-04-19T06:43:10.241Z,99.90
2018-04-19T06:47:53.582Z,99.90
2018-04-19T06:52:37.799Z,99.90
2018-04-19T06:57:21.146Z,99.90
2018-04-19T07:02:04.515Z,99.90
2018-04-19T07:06:48.593Z,99.90
2018-04-19T07:11:31.896Z,99.90
2018-04-19T07:16:15.249Z,99.90
2018-04-19T07:20:58.575Z,99.90
2018-04-19T07:25:41.888Z,99.90
2018-04-19T07:30:25.213Z,98.20
2018-04-19T07:35:08.519Z,96.20
2018-04-19T07:39:52.583Z,94.50
2018-04-19T07:44:35.976Z,94.60
2018-04-19T07:49:19.281Z,93.30
2018-04-19T07:54:02.590Z,92.50
2018-04-19T07:58:46.690Z,90.10
2018-04-19T08:03:30.053Z,90.10
2018-04-19T08:08:13.395Z,89.70
2018-04-19T08:12:56.707Z,86.30
2018-04-19T08:17:40.030Z,85.70
2018-04-19T08:22:23.349Z,78.50
2018-04-19T08:27:07.706Z,68.60
2018-04-19T08:31:51.828Z,67.80
2018-04-19T08:36:35.146Z,67.60
2018-04-19T08:41:18.488Z,70.40
2018-04-19T08:46:01.790Z,64.70
2018-04-19T08:50:45.146Z,64.10
2018-04-19T08:55:29.237Z,63.00
2018-04-19T09:00:12.575Z,62.90
2018-04-19T09:04:55.906Z,59.90
2018-04-19T09:09:39.182Z,60.70
2018-04-19T09:14:22.525Z,59.70
2018-04-19T09:19:05.877Z,59.30
2018-04-19T09:23:49.191Z,58.30
2018-04-19T09:28:32.526Z,58.70
2018-04-19T09:33:15.843Z,58.90
2018-04-19T09:37:59.184Z,56.50
2018-04-19T09:42:42.515Z,54.80
2018-04-19T09:47:25.866Z,53.20
2018-04-19T09:52:09.206Z,53.50
2018-04-19T09:56:53.320Z,50.70
2018-04-19T10:01:43.080Z,52.60
2018-04-19T10:06:26.435Z,52.60
2018-04-19T10:11:10.625Z,50.60
2018-04-19T10:15:54.717Z,49.40
2018-04-19T10:20:38.035Z,49.40
2018-04-19T10:25:21.355Z,47.50
2018-04-19T10:30:05.432Z,45.40
2018-04-19T10:34:48.800Z,45.20
2018-04-19T10:39:32.207Z,45.60
2018-04-19T10:44:16.298Z,43.60
2018-04-19T10:48:59.629Z,43.60
2018-04-19T10:53:42.963Z,43.60
2018-04-19T10:58:26.313Z,45.90
2018-04-19T11:03:09.630Z,45.60
2018-04-19T11:07:53.698Z,45.80
2018-04-19T11:12:37.058Z,45.80
2018-04-19T11:17:20.383Z,43.90
2018-04-19T11:22:03.668Z,45.10
2018-04-19T11:26:47.829Z,44.40
2018-04-19T11:31:31.190Z,44.40
2018-04-19T11:36:14.521Z,44.50
2018-04-19T11:40:57.800Z,42.30
2018-04-19T11:45:41.110Z,43.00
2018-04-19T11:50:25.183Z,45.30
2018-04-19T11:55:08.495Z,45.30
2018-04-19T11:59:52.658Z,45.90
2018-04-19T12:04:36.021Z,45.90
2018-04-19T12:09:19.650Z,43.30
2018-04-19T12:14:03.828Z,42.80
2018-04-19T12:18:47.750Z,42.90
2018-04-19T12:23:31.086Z,43.40
2018-04-19T12:28:14.398Z,43.70
2018-04-19T12:32:57.834Z,43.90
2018-04-19T12:37:41.238Z,43.10
2018-04-19T12:42:24.468Z,42.30
2018-04-19T12:47:08.690Z,42.40
2018-04-19T12:51:52.047Z,41.80
2018-04-19T12:56:35.364Z,40.70
2018-04-19T13:01:18.731Z,41.00
2018-04-19T13:06:02.075Z,42.10
2018-04-19T13:10:45.407Z,42.80
2018-04-19T13:15:28.721Z,40.20
2018-04-19T13:20:12.025Z,41.00
2018-04-19T13:24:56.117Z,40.60
2018-04-19T13:29:39.476Z,40.60
2018-04-19T13:34:22.791Z,39.80
2018-04-19T13:39:06.249Z,40.20
2018-04-19T13:43:49.595Z,40.90
2018-04-19T13:48:32.897Z,42.40
2018-04-19T13:53:16.228Z,42.10
2018-04-19T13:57:59.591Z,41.00
2018-04-19T14:02:42.929Z,41.70
2018-04-19T14:07:26.254Z,41.60
2018-04-19T14:12:09.566Z,41.20
2018-04-19T14:16:52.902Z,39.10
2018-04-19T14:21:36.210Z,38.30
2018-04-19T14:26:19.527Z,38.30
2018-04-19T14:31:02.863Z,39.20
2018-04-19T14:35:46.208Z,40.40
2018-04-19T14:40:29.535Z,38.90
2018-04-19T14:45:13.544Z,38.80
2018-04-19T14:49:56.930Z,39.50
2018-04-19T14:54:40.413Z,37.00
2018-04-19T14:59:23.714Z,36.40
2018-04-19T15:04:07.088Z,35.90
2018-04-19T15:08:50.418Z,35.40
2018-04-19T15:13:33.785Z,36.90
2018-04-19T15:18:17.291Z,38.10
2018-04-19T15:23:01.332Z,38.60
2018-04-19T15:27:45.446Z,36.00
2018-04-19T15:32:28.811Z,35.90
2018-04-19T15:37:12.906Z,37.00
2018-04-19T15:41:56.977Z,39.00
2018-04-19T15:46:40.412Z,39.00
2018-04-19T15:51:24.505Z,39.80
2018-04-19T15:56:07.868Z,40.30
2018-04-19T16:00:51.295Z,42.20
2018-04-19T16:05:34.651Z,41.20
2018-04-19T16:10:18.031Z,41.60
2018-04-19T16:15:01.411Z,44.40
2018-04-19T16:19:44.771Z,42.70
2018-04-19T16:24:28.135Z,42.70
2018-04-19T16:29:12.219Z,42.20
2018-04-19T16:33:55.592Z,42.20
2018-04-19T16:38:38.976Z,43.70
2018-04-19T16:43:22.371Z,43.30
2018-04-19T16:48:05.962Z,44.20
2018-04-19T16:52:49.312Z,43.90
2018-04-19T16:57:32.669Z,42.90
2018-04-19T17:02:16.153Z,43.30
2018-04-19T17:06:59.516Z,42.60
2018-04-19T17:11:43.612Z,44.40
2018-04-19T17:16:26.938Z,44.40
2018-04-19T17:21:10.344Z,44.50
2018-04-19T17:25:54.947Z,46.40
2018-04-19T17:30:39.055Z,51.40
2018-04-19T17:35:23.158Z,50.90
2018-04-19T17:40:06.692Z,50.90
2018-04-19T17:44:50.827Z,55.20
2018-04-19T17:59:18.300Z,58.50
2018-04-19T18:04:02.407Z,73.90
2018-04-19T18:08:45.793Z,73.70
2018-04-19T18:13:29.211Z,80.00
2018-04-19T18:18:12.656Z,83.30
2018-04-19T18:22:57.126Z,92.30
2018-04-19T18:27:41.311Z,93.80
2018-04-19T18:32:24.778Z,93.70
2018-04-19T18:37:08.230Z,95.40
2018-04-19T18:41:51.621Z,96.40
2018-04-19T18:46:34.960Z,98.40
2018-04-19T18:51:18.317Z,99.80
2018-04-19T18:56:02.439Z,99.90
2018-04-19T19:00:45.749Z,99.90
2018-04-19T19:05:29.866Z,99.90
2018-04-19T19:10:14.046Z,99.90
2018-04-19T19:14:58.126Z,99.90
2018-04-19T19:19:53.308Z,99.90
2018-04-19T19:24:37.468Z,99.90
2018-04-19T19:29:21.561Z,99.90
2018-04-19T19:34:04.880Z,99.90
2018-04-19T19:38:48.284Z,99.90
2018-04-19T19:43:31.617Z,99.90
2018-04-19T19:48:14.958Z,99.90
2018-04-19T19:52:58.300Z,99.90
2018-04-19T19:57:41.618Z,99.90
2018-04-19T20:02:26.578Z,99.90
2018-04-19T20:07:10.087Z,99.90
2018-04-19T20:11:53.521Z,99.90
2018-04-19T20:16:36.839Z,99.90
2018-04-19T20:21:20.110Z,99.90
2018-04-19T20:26:03.450Z,99.90
2018-04-19T20:30:47.541Z,99.90
2018-04-19T20:35:30.906Z,99.90
2018-04-19T20:40:14.250Z,99.90
2018-04-19T20:44:57.542Z,99.90
2018-04-19T20:49:40.874Z,99.90
2018-04-19T20:54:24.182Z,99.90
2018-04-19T20:59:07.495Z,99.90
2018-04-19T21:03:50.847Z,99.90
2018-04-19T21:08:34.153Z,99.90
2018-04-19T21:13:17.494Z,99.90
2018-04-19T21:18:00.794Z,99.90
2018-04-19T21:22:44.171Z,99.90
2018-04-19T21:27:27.475Z,99.90
2018-04-19T21:32:11.543Z,99.90
2018-04-19T21:36:55.625Z,99.90
2018-04-19T21:41:38.926Z,99.90
2018-04-19T21:46:23.028Z,99.90
2018-04-19T21:51:06.353Z,99.90
2018-04-19T21:55:49.687Z,99.90
2018-04-19T22:00:33.766Z,99.90
2018-04-19T22:05:17.151Z,99.90
2018-04-19T22:10:00.422Z,99.90
2018-04-19T22:14:43.735Z,99.90
2018-04-19T22:19:27.050Z,99.90
2018-04-19T22:24:10.400Z,99.90
2018-04-19T22:28:53.712Z,99.90
2018-04-19T22:33:37.074Z,99.90
2018-04-19T22:38:20.379Z,99.90
2018-04-19T22:43:03.663Z,99.90
2018-04-19T22:47:46.952Z,99.90
2018-04-19T22:52:30.257Z,99.90
2018-04-19T22:57:13.570Z,99.90
2018-04-19T23:01:56.874Z,99.90
2018-04-19T23:06:40.216Z,99.90
2018-04-19T23:11:24.278Z,99.90
2018-04-19T23:16:07.547Z,99.90
2018-04-19T23:20:50.879Z,99.90
2018-04-19T23:25:34.170Z,99.90
2018-04-19T23:30:17.539Z,99.90
2018-04-19T23:35:00.850Z,99.90
2018-04-19T23:39:44.939Z,99.90
2018-04-19T23:44:28.347Z,99.90
2018-04-19T23:49:12.490Z,99.90
2018-04-19T23:53:55.786Z,99.90
2018-04-19T23:58:39.137Z,99.90
